CheckWX is a tool to help pilots better visualize weather data.  It is not intended as a substitute for an official pre-flight weather briefing.

02:53:57 UTC

KLSF METAR
Lawson AAF (Fort Benning) Airport
Fort Benning(Columbus), Georgia, USA
Current

58 mins ago

KLSF 240156Z AUTO 00000KT 10SM CLR 09/03 A3022 RMK AO2 SLP239 T00870029
Observed
Mar-24 @ 01:56 UTC
Visibility
10 SM
Flight Rules
VFR
Cloud Levels
  • Clear skies
Temperature
C / 48°F
Dewpoint
C / 37°F
Humidity
66%
Altimeter
30.22" Hg
Pressure
1023.9 hPa
Previous

2 hours ago

KLSF 240056Z AUTO 00000KT 10SM CLR 12/02 A3021 RMK AO2 SLP236 T01160018
Observed
Mar-24 @ 00:56 UTC
Visibility
10 SM
Flight Rules
VFR
Cloud Levels
  • Clear skies
Temperature
12°C / 54°F
Dewpoint
C / 36°F
Humidity
51%
Altimeter
30.21" Hg
Pressure
1023.6 hPa
Previous

3 hours ago

KLSF 232356Z AUTO 00000KT 10SM CLR 16/02 A3018 RMK AO2 SLP226 T01600017 10243 20159 53004
Observed
Mar-23 @ 23:56 UTC
Visibility
10 SM
Flight Rules
VFR
Cloud Levels
  • Clear skies
Temperature
16°C / 61°F
Dewpoint
C / 36°F
Humidity
39%
Altimeter
30.18" Hg
Pressure
1022.6 hPa